Time;durP1;ratioP1;P1;durP2;ratioP2;P2;SDS_P1;SDS_P2;PMS_P1;PMS_P2;Temp;Humidity;BMP_temperature;BMP_pressure;BME280_temperature;BME280_humidity;BME280_pressure;Samples;Min_cycle;Max_cycle;Signal;HPM_P1;HPM_P2
2023/08/30 00:01:11;;;;;;;5.55;2.42;;;;;;;;;;6273468;28;20090;-81
2023/08/30 00:04:14;;;;;;;3.95;2.63;;;;;;;;;;6271439;28;20076;-81
2023/08/30 00:07:16;;;;;;;5.97;3.35;;;;;;;;;;6274500;28;20125;-81
2023/08/30 00:10:18;;;;;;;3.63;2.50;;;;;;;;;;6274415;28;20409;-80
2023/08/30 00:13:20;;;;;;;6.97;2.85;;;;;;;;;;6277079;28;20048;-82
2023/08/30 00:16:24;;;;;;;5.30;2.30;;;;;;;;;;6280289;28;20055;-81
2023/08/30 00:19:27;;;;;;;4.70;2.20;;;;;;;;;;6275410;28;20126;-81
2023/08/30 00:22:29;;;;;;;5.88;2.47;;;;;;;;;;6271850;28;21775;-82
2023/08/30 00:25:34;;;;;;;4.82;2.00;;;;;;;;;;6271311;28;20049;-81
2023/08/30 00:28:42;;;;;;;4.47;2.08;;;;;;;;;;6271203;28;20048;-80
2023/08/30 00:31:44;;;;;;;5.47;2.03;;;;;;;;;;6283466;28;20056;-81
2023/08/30 00:34:47;;;;;;;3.95;1.90;;;;;;;;;;6274181;28;20341;-80
2023/08/30 00:37:48;;;;;;;5.88;2.55;;;;;;;;;;6273730;28;20696;-80
2023/08/30 00:40:50;;;;;;;5.30;2.40;;;;;;;;;;6271298;28;20073;-80
2023/08/30 00:43:52;;;;;;;5.05;2.05;;;;;;;;;;6273730;28;20067;-80
2023/08/30 00:46:54;;;;;;;9.38;2.30;;;;;;;;;;6273330;28;20064;-81
2023/08/30 00:49:57;;;;;;;5.93;2.33;;;;;;;;;;6273466;28;20056;-80
2023/08/30 00:52:59;;;;;;;5.30;2.67;;;;;;;;;;6274300;28;20076;-80
2023/08/30 00:56:01;;;;;;;3.72;2.13;;;;;;;;;;6279984;28;20057;-80
2023/08/30 00:59:03;;;;;;;5.18;2.35;;;;;;;;;;6274084;28;20108;-81
2023/08/30 01:02:05;;;;;;;5.97;2.05;;;;;;;;;;6272443;28;20318;-82
2023/08/30 01:05:09;;;;;;;5.28;2.08;;;;;;;;;;6273639;28;20340;-81
2023/08/30 01:08:11;;;;;;;3.80;2.00;;;;;;;;;;6273009;28;20079;-80
2023/08/30 01:11:18;;;;;;;5.20;2.28;;;;;;;;;;6273838;28;20050;-80
2023/08/30 01:14:23;;;;;;;4.43;1.88;;;;;;;;;;6273582;28;20130;-80
2023/08/30 01:17:26;;;;;;;6.50;2.53;;;;;;;;;;6266916;28;20091;-80
2023/08/30 01:20:30;;;;;;;4.57;2.27;;;;;;;;;;6271393;28;20067;-80
2023/08/30 01:23:40;;;;;;;5.05;2.17;;;;;;;;;;6274931;28;20053;-80
2023/08/30 01:26:45;;;;;;;6.47;2.80;;;;;;;;;;6274795;28;20054;-80
2023/08/30 01:29:50;;;;;;;4.15;2.63;;;;;;;;;;6273451;28;20050;-81
2023/08/30 01:32:52;;;;;;;5.03;2.45;;;;;;;;;;6273949;28;20049;-82
2023/08/30 01:35:55;;;;;;;5.10;1.92;;;;;;;;;;6273705;28;20383;-82
2023/08/30 01:38:58;;;;;;;6.25;2.08;;;;;;;;;;6270470;28;20056;-80
2023/08/30 01:42:01;;;;;;;5.43;2.25;;;;;;;;;;6274424;28;20052;-80
2023/08/30 01:45:05;;;;;;;3.75;2.00;;;;;;;;;;6274340;28;20045;-80
2023/08/30 01:48:08;;;;;;;5.97;2.15;;;;;;;;;;6271685;28;20060;-80
2023/08/30 01:51:10;;;;;;;11.35;2.65;;;;;;;;;;6274838;28;20313;-80
2023/08/30 01:54:14;;;;;;;5.35;1.98;;;;;;;;;;6276305;28;20053;-80
2023/08/30 01:57:16;;;;;;;7.25;2.22;;;;;;;;;;6276535;28;20056;-81
2023/08/30 02:00:19;;;;;;;4.65;2.22;;;;;;;;;;6273709;28;20064;-80
2023/08/30 02:03:22;;;;;;;6.82;2.55;;;;;;;;;;6266011;28;20059;-81
2023/08/30 02:06:27;;;;;;;5.15;1.98;;;;;;;;;;6275346;28;23160;-81
2023/08/30 02:09:33;;;;;;;5.65;2.10;;;;;;;;;;6273758;28;20048;-81
2023/08/30 02:12:42;;;;;;;5.25;2.40;;;;;;;;;;6267196;28;20072;-80
2023/08/30 02:15:46;;;;;;;4.18;1.98;;;;;;;;;;6272793;28;20064;-81
2023/08/30 02:18:50;;;;;;;6.65;2.28;;;;;;;;;;6270232;28;20345;-81
2023/08/30 02:21:51;;;;;;;6.15;2.00;;;;;;;;;;6270475;28;20050;-81
2023/08/30 02:24:53;;;;;;;8.63;2.22;;;;;;;;;;6269235;28;20041;-81
2023/08/30 02:27:55;;;;;;;6.32;2.22;;;;;;;;;;6267872;28;20064;-80
2023/08/30 02:30:58;;;;;;;5.70;2.08;;;;;;;;;;6268304;28;20166;-80
2023/08/30 02:34:00;;;;;;;5.10;2.03;;;;;;;;;;6268589;28;20059;-80
2023/08/30 02:37:01;;;;;;;9.18;1.90;;;;;;;;;;6268548;28;20063;-81
2023/08/30 02:40:03;;;;;;;3.90;2.00;;;;;;;;;;6268309;28;20053;-79
2023/08/30 02:43:05;;;;;;;5.32;2.30;;;;;;;;;;6273129;28;20040;-80
2023/08/30 02:46:08;;;;;;;5.30;1.70;;;;;;;;;;6272590;28;20112;-80
2023/08/30 02:49:11;;;;;;;4.88;2.00;;;;;;;;;;6267956;28;20044;-80
2023/08/30 02:52:12;;;;;;;4.13;1.90;;;;;;;;;;6276038;28;20064;-80
2023/08/30 02:55:15;;;;;;;6.32;2.10;;;;;;;;;;6271847;28;20356;-80
2023/08/30 02:58:18;;;;;;;6.13;2.20;;;;;;;;;;6269940;28;20096;-80
2023/08/30 03:01:21;;;;;;;;;;;;;;;;;;6275206;28;20052;-80
2023/08/30 03:04:23;;;;;;;4.43;1.80;;;;;;;;;;6270206;28;20224;-81
2023/08/30 03:07:25;;;;;;;4.03;1.70;;;;;;;;;;6271420;28;20055;-80
2023/08/30 03:10:27;;;;;;;7.63;2.20;;;;;;;;;;6270250;28;20327;-81
2023/08/30 03:13:29;;;;;;;4.47;1.85;;;;;;;;;;6271327;28;20669;-80
2023/08/30 03:16:32;;;;;;;4.90;2.28;;;;;;;;;;6270819;28;20049;-81
2023/08/30 03:19:34;;;;;;;5.25;2.10;;;;;;;;;;6271876;28;20100;-80
2023/08/30 03:22:37;;;;;;;5.00;2.70;;;;;;;;;;6271771;28;20346;-81
2023/08/30 03:25:38;;;;;;;4.47;2.25;;;;;;;;;;6268549;28;20058;-80
2023/08/30 03:28:44;;;;;;;5.45;2.13;;;;;;;;;;6271796;28;20057;-80
2023/08/30 03:31:56;;;;;;;10.65;2.30;;;;;;;;;;6263336;28;20079;-81
2023/08/30 03:34:59;;;;;;;9.27;2.35;;;;;;;;;;6270432;28;20068;-80
2023/08/30 03:38:01;;;;;;;6.50;2.35;;;;;;;;;;6274364;28;20419;-80
2023/08/30 03:41:03;;;;;;;6.25;2.35;;;;;;;;;;6271909;28;20049;-80
2023/08/30 03:44:05;;;;;;;3.45;1.85;;;;;;;;;;6272686;28;20049;-80
2023/08/30 03:47:08;;;;;;;4.10;2.00;;;;;;;;;;6278398;28;20060;-80
2023/08/30 03:50:10;;;;;;;8.50;2.78;;;;;;;;;;6276391;28;20337;-80
2023/08/30 03:53:12;;;;;;;4.40;2.20;;;;;;;;;;6276826;28;20064;-80
2023/08/30 03:56:14;;;;;;;4.43;2.28;;;;;;;;;;6276326;28;20057;-81
2023/08/30 03:59:16;;;;;;;6.22;1.92;;;;;;;;;;6273643;28;20053;-80
2023/08/30 04:02:19;;;;;;;4.82;2.42;;;;;;;;;;6273489;28;20059;-80
2023/08/30 04:05:21;;;;;;;9.88;2.95;;;;;;;;;;6278263;28;20276;-80
2023/08/30 04:08:23;;;;;;;6.65;2.25;;;;;;;;;;6273519;28;20069;-81
2023/08/30 04:11:29;;;;;;;8.07;2.10;;;;;;;;;;6276876;28;20321;-81
2023/08/30 04:14:30;;;;;;;4.82;2.05;;;;;;;;;;6278306;28;20053;-80
2023/08/30 04:17:34;;;;;;;4.95;2.38;;;;;;;;;;6274638;28;20056;-80
2023/08/30 04:20:35;;;;;;;4.45;2.35;;;;;;;;;;6275986;28;20095;-80
2023/08/30 04:23:37;;;;;;;4.22;2.30;;;;;;;;;;6276818;28;20120;-79
2023/08/30 04:26:39;;;;;;;3.25;2.08;;;;;;;;;;6271962;28;20056;-79
2023/08/30 04:29:44;;;;;;;3.75;1.98;;;;;;;;;;6273238;28;20055;-82
2023/08/30 04:32:47;;;;;;;4.28;2.05;;;;;;;;;;6276912;28;20052;-80
2023/08/30 04:35:51;;;;;;;4.50;2.10;;;;;;;;;;6273368;28;20061;-80
2023/08/30 04:38:53;;;;;;;4.05;2.22;;;;;;;;;;6275596;28;20053;-80
2023/08/30 04:42:05;;;;;;;4.28;2.40;;;;;;;;;;6275498;28;20057;-79
2023/08/30 04:45:10;;;;;;;4.82;2.38;;;;;;;;;;6270891;28;20049;-80
2023/08/30 04:48:14;;;;;;;5.68;2.53;;;;;;;;;;6274871;28;20053;-80
2023/08/30 04:51:32;;;;;;;4.45;2.03;;;;;;;;;;6274439;28;20051;-79
2023/08/30 04:54:37;;;;;;;4.82;2.53;;;;;;;;;;6273637;28;20139;-80
2023/08/30 04:57:39;;;;;;;5.60;2.42;;;;;;;;;;6274070;28;20092;-81
2023/08/30 05:00:43;;;;;;;4.28;2.60;;;;;;;;;;6277887;28;20060;-80
2023/08/30 05:03:46;;;;;;;4.55;2.67;;;;;;;;;;6273633;28;20079;-78
2023/08/30 05:06:54;;;;;;;4.50;2.65;;;;;;;;;;6273389;28;20052;-81
2023/08/30 05:09:56;;;;;;;12.80;2.53;;;;;;;;;;6273878;28;20064;-80
2023/08/30 05:12:58;;;;;;;7.18;2.55;;;;;;;;;;6274827;28;20317;-78
2023/08/30 05:16:00;;;;;;;4.28;2.88;;;;;;;;;;6275225;28;20084;-79
2023/08/30 05:19:03;;;;;;;7.13;3.22;;;;;;;;;;6271199;28;20053;-80
2023/08/30 05:22:05;;;;;;;6.05;3.22;;;;;;;;;;6269458;28;20061;-80
2023/08/30 05:25:07;;;;;;;5.07;2.97;;;;;;;;;;6274432;28;20343;-79
2023/08/30 05:28:09;;;;;;;4.82;2.97;;;;;;;;;;6273388;28;20060;-78
2023/08/30 05:31:17;;;;;;;3.83;2.63;;;;;;;;;;6276961;28;20053;-78
2023/08/30 05:34:21;;;;;;;4.97;2.90;;;;;;;;;;6271519;28;20060;-78
2023/08/30 05:37:22;;;;;;;5.38;2.90;;;;;;;;;;6271075;28;20049;-78
2023/08/30 05:40:24;;;;;;;6.47;3.45;;;;;;;;;;6275810;28;21028;-78
2023/08/30 05:43:26;;;;;;;7.05;3.25;;;;;;;;;;6274030;28;20059;-78
2023/08/30 05:46:28;;;;;;;5.63;2.80;;;;;;;;;;6276970;28;20329;-78
2023/08/30 05:49:31;;;;;;;4.07;2.85;;;;;;;;;;6272796;28;20067;-78
2023/08/30 05:52:33;;;;;;;5.50;2.90;;;;;;;;;;6274362;28;20325;-78
2023/08/30 05:55:35;;;;;;;4.50;2.42;;;;;;;;;;6270935;28;20094;-78
2023/08/30 05:58:37;;;;;;;3.10;2.20;;;;;;;;;;6274736;28;20063;-78
2023/08/30 06:01:39;;;;;;;8.07;2.70;;;;;;;;;;6272897;28;20060;-78
2023/08/30 06:04:42;;;;;;;6.88;2.70;;;;;;;;;;6270740;28;20319;-78
2023/08/30 06:07:44;;;;;;;5.53;2.90;;;;;;;;;;6270570;28;20060;-78
2023/08/30 06:10:46;;;;;;;5.45;3.05;;;;;;;;;;6271189;28;20134;-78
2023/08/30 06:13:48;;;;;;;4.20;2.83;;;;;;;;;;6272471;28;20049;-78
2023/08/30 06:16:49;;;;;;;4.55;2.67;;;;;;;;;;6269134;28;20104;-78
2023/08/30 06:19:53;;;;;;;6.85;3.05;;;;;;;;;;6272113;28;20064;-80
2023/08/30 06:22:54;;;;;;;4.55;2.90;;;;;;;;;;6272957;28;20354;-78
2023/08/30 06:25:56;;;;;;;7.75;2.53;;;;;;;;;;6271605;28;20049;-80
2023/08/30 06:28:58;;;;;;;4.03;2.60;;;;;;;;;;6275327;28;20079;-80
2023/08/30 06:32:00;;;;;;;8.98;2.83;;;;;;;;;;6271391;28;20284;-79
2023/08/30 06:35:03;;;;;;;4.10;2.38;;;;;;;;;;6273905;28;20057;-80
2023/08/30 06:38:05;;;;;;;;;;;;;;;;;;6271983;28;20129;-79
2023/08/30 06:41:07;;;;;;;5.10;2.90;;;;;;;;;;6273496;28;19936;-79
2023/08/30 06:44:08;;;;;;;5.70;2.47;;;;;;;;;;6271013;28;20065;-79
2023/08/30 06:47:18;;;;;;;4.28;2.47;;;;;;;;;;6272269;28;20269;-79
2023/08/30 06:50:21;;;;;;;5.43;2.50;;;;;;;;;;6273124;28;20284;-79
2023/08/30 06:53:23;;;;;;;5.50;2.63;;;;;;;;;;6273950;28;20048;-79
2023/08/30 06:56:25;;;;;;;5.60;2.88;;;;;;;;;;6271683;28;20313;-79
2023/08/30 06:59:27;;;;;;;3.92;2.25;;;;;;;;;;6271961;28;20057;-78
2023/08/30 07:02:29;;;;;;;4.22;2.65;;;;;;;;;;6270610;28;20053;-79
2023/08/30 07:05:32;;;;;;;7.75;2.92;;;;;;;;;;6272711;28;20052;-79
2023/08/30 07:08:34;;;;;;;3.83;2.63;;;;;;;;;;6275538;28;20233;-79
2023/08/30 07:11:35;;;;;;;6.43;2.83;;;;;;;;;;6272291;28;20210;-79
2023/08/30 07:14:37;;;;;;;8.85;2.95;;;;;;;;;;6272835;28;20057;-79
2023/08/30 07:17:42;;;;;;;4.57;3.22;;;;;;;;;;6270452;28;20055;-79
2023/08/30 07:20:45;;;;;;;7.13;2.70;;;;;;;;;;6271671;28;20059;-79
2023/08/30 07:23:47;;;;;;;4.55;2.83;;;;;;;;;;6269670;28;20049;-79
2023/08/30 07:26:49;;;;;;;5.63;2.95;;;;;;;;;;6269120;28;20057;-79
2023/08/30 07:29:51;;;;;;;3.53;2.40;;;;;;;;;;6272378;28;20045;-79
2023/08/30 07:32:52;;;;;;;3.38;2.35;;;;;;;;;;6271570;28;20053;-79
2023/08/30 07:35:56;;;;;;;2.58;1.80;;;;;;;;;;6270743;28;20118;-79
2023/08/30 07:38:58;;;;;;;4.25;2.60;;;;;;;;;;6273659;28;20051;-79
2023/08/30 07:41:59;;;;;;;3.25;1.85;;;;;;;;;;6274981;28;20379;-79
2023/08/30 07:45:01;;;;;;;3.78;2.70;;;;;;;;;;6270658;28;20266;-79
2023/08/30 07:48:06;;;;;;;3.53;2.10;;;;;;;;;;6272078;28;20502;-79
2023/08/30 07:51:09;;;;;;;4.55;2.50;;;;;;;;;;6272463;28;20053;-78
2023/08/30 07:54:11;;;;;;;2.72;2.15;;;;;;;;;;6272709;28;20426;-78
2023/08/30 07:57:13;;;;;;;3.97;2.22;;;;;;;;;;6269224;28;20244;-79
2023/08/30 08:00:15;;;;;;;3.88;2.33;;;;;;;;;;6272679;28;20060;-79
2023/08/30 08:03:17;;;;;;;3.28;2.13;;;;;;;;;;6270177;28;20059;-79
2023/08/30 08:06:20;;;;;;;5.28;2.17;;;;;;;;;;6272439;28;20053;-79
2023/08/30 08:09:22;;;;;;;4.88;1.95;;;;;;;;;;6275446;28;20230;-79
2023/08/30 08:12:24;;;;;;;3.03;1.90;;;;;;;;;;6275836;28;20057;-79
2023/08/30 08:15:26;;;;;;;3.50;1.83;;;;;;;;;;6272720;28;20045;-79
2023/08/30 08:18:28;;;;;;;3.92;2.00;;;;;;;;;;6270833;28;20044;-79
2023/08/30 08:21:31;;;;;;;2.63;2.00;;;;;;;;;;6273037;28;20076;-80
2023/08/30 08:24:33;;;;;;;3.92;1.95;;;;;;;;;;6263630;28;20053;-79
2023/08/30 08:27:34;;;;;;;5.70;2.38;;;;;;;;;;6282598;28;20045;-79
2023/08/30 08:30:37;;;;;;;5.03;2.03;;;;;;;;;;6272244;28;20070;-79
2023/08/30 08:33:39;;;;;;;3.85;2.00;;;;;;;;;;6278122;28;20226;-79
2023/08/30 08:36:43;;;;;;;5.30;1.70;;;;;;;;;;6275126;28;20224;-79
2023/08/30 08:39:46;;;;;;;2.03;1.70;;;;;;;;;;6275466;28;20092;-79
2023/08/30 08:42:52;;;;;;;3.13;1.40;;;;;;;;;;6276598;28;20057;-79
2023/08/30 08:45:53;;;;;;;2.25;1.23;;;;;;;;;;6274942;28;20062;-79
2023/08/30 08:48:57;;;;;;;2.55;1.45;;;;;;;;;;6277216;28;20048;-80
2023/08/30 08:52:00;;;;;;;4.00;1.75;;;;;;;;;;6271443;28;20042;-79
2023/08/30 08:55:02;;;;;;;2.78;1.60;;;;;;;;;;6273779;28;20241;-80
2023/08/30 08:58:05;;;;;;;2.72;1.30;;;;;;;;;;6274849;28;21920;-79
2023/08/30 09:01:07;;;;;;;2.17;1.40;;;;;;;;;;6271473;28;20045;-80
2023/08/30 09:04:09;;;;;;;4.30;1.38;;;;;;;;;;6273318;28;20045;-81
2023/08/30 09:07:15;;;;;;;1.20;1.05;;;;;;;;;;6274586;28;20057;-80
2023/08/30 09:10:17;;;;;;;2.42;1.27;;;;;;;;;;6273160;28;20053;-80
2023/08/30 09:13:20;;;;;;;3.00;1.10;;;;;;;;;;6276054;28;20053;-81
2023/08/30 09:16:22;;;;;;;2.00;1.20;;;;;;;;;;6274692;28;20277;-80
2023/08/30 09:19:24;;;;;;;2.58;1.17;;;;;;;;;;6276250;28;20110;-80
2023/08/30 09:22:37;;;;;;;4.68;1.30;;;;;;;;;;6274924;28;20064;-80
2023/08/30 09:25:39;;;;;;;3.42;1.05;;;;;;;;;;6275185;28;20119;-80
2023/08/30 09:28:44;;;;;;;2.25;1.48;;;;;;;;;;6275747;28;20037;-80
2023/08/30 09:31:46;;;;;;;2.22;1.10;;;;;;;;;;6275219;28;20243;-80
2023/08/30 09:34:48;;;;;;;4.50;1.20;;;;;;;;;;6273079;28;20110;-81
2023/08/30 09:37:52;;;;;;;2.20;1.10;;;;;;;;;;6274288;28;20330;-81
2023/08/30 09:41:03;;;;;;;2.80;1.15;;;;;;;;;;6273606;28;20102;-81
2023/08/30 09:44:10;;;;;;;2.50;0.95;;;;;;;;;;6271812;28;20245;-80
2023/08/30 09:47:16;;;;;;;2.58;1.10;;;;;;;;;;6273221;28;20083;-80
2023/08/30 09:50:24;;;;;;;1.63;0.95;;;;;;;;;;6274131;28;20053;-80
2023/08/30 09:53:28;;;;;;;2.42;1.30;;;;;;;;;;6275871;28;20250;-80
2023/08/30 09:56:30;;;;;;;1.50;1.00;;;;;;;;;;6272559;28;20107;-80
2023/08/30 09:59:32;;;;;;;1.70;1.00;;;;;;;;;;6272434;28;20095;-81
2023/08/30 10:02:34;;;;;;;2.42;1.00;;;;;;;;;;6274128;28;20417;-79
2023/08/30 10:05:37;;;;;;;2.10;1.10;;;;;;;;;;6272725;28;20063;-80
2023/08/30 10:08:42;;;;;;;1.85;1.15;;;;;;;;;;6271042;28;20076;-80
2023/08/30 10:11:46;;;;;;;2.25;1.10;;;;;;;;;;6271882;28;20317;-79
2023/08/30 10:14:48;;;;;;;2.55;1.17;;;;;;;;;;6272605;28;20057;-80
2023/08/30 10:17:51;;;;;;;1.63;1.00;;;;;;;;;;6268609;28;20214;-80
2023/08/30 10:20:55;;;;;;;2.78;1.10;;;;;;;;;;6272795;28;20055;-80
2023/08/30 10:24:01;;;;;;;2.05;1.55;;;;;;;;;;6269287;28;20061;-80
2023/08/30 10:27:06;;;;;;;3.30;1.40;;;;;;;;;;6269388;28;20048;-80
2023/08/30 10:30:09;;;;;;;4.10;1.48;;;;;;;;;;6269046;28;20109;-81
2023/08/30 10:33:14;;;;;;;2.50;1.30;;;;;;;;;;6271164;28;20056;-81
2023/08/30 10:36:22;;;;;;;1.75;1.35;;;;;;;;;;6267708;28;20045;-81
2023/08/30 10:39:34;;;;;;;1.25;1.00;;;;;;;;;;6268326;28;20095;-80
2023/08/30 10:42:36;;;;;;;3.90;1.30;;;;;;;;;;6269370;28;20049;-80
2023/08/30 10:45:38;;;;;;;3.50;1.48;;;;;;;;;;6269220;28;20061;-80
2023/08/30 10:48:42;;;;;;;1.80;1.70;;;;;;;;;;6269226;28;20056;-80
2023/08/30 10:51:44;;;;;;;2.88;1.45;;;;;;;;;;6267848;28;20053;-80
2023/08/30 10:54:48;;;;;;;;;;;;;;;;;;6274233;28;20094;-80
2023/08/30 10:57:59;;;;;;;3.17;1.60;;;;;;;;;;6269742;28;19932;-81
2023/08/30 11:01:01;;;;;;;4.33;1.60;;;;;;;;;;6267085;28;20352;-80
2023/08/30 11:04:03;;;;;;;4.15;1.75;;;;;;;;;;6270495;28;20056;-81
2023/08/30 11:07:06;;;;;;;2.08;1.45;;;;;;;;;;6273760;28;20405;-80
2023/08/30 11:10:10;;;;;;;3.13;1.60;;;;;;;;;;6267621;28;20316;-80
2023/08/30 11:13:16;;;;;;;6.32;1.45;;;;;;;;;;6274112;28;20308;-81
2023/08/30 11:16:22;;;;;;;3.22;1.90;;;;;;;;;;6271894;28;20061;-80
2023/08/30 11:19:24;;;;;;;3.40;1.67;;;;;;;;;;6274330;28;20049;-80
2023/08/30 11:22:26;;;;;;;2.28;1.00;;;;;;;;;;6274012;28;20053;-80
2023/08/30 11:25:29;;;;;;;3.17;1.40;;;;;;;;;;6270854;28;20049;-80
2023/08/30 11:28:31;;;;;;;5.80;1.45;;;;;;;;;;6272055;28;20063;-80
2023/08/30 11:31:45;;;;;;;2.83;1.17;;;;;;;;;;6273627;28;20061;-80
2023/08/30 11:34:59;;;;;;;1.40;0.80;;;;;;;;;;6260559;28;20056;-80
2023/08/30 11:38:20;;;;;;;2.33;0.82;;;;;;;;;;6271216;28;20071;-80
2023/08/30 11:41:26;;;;;;;1.85;0.80;;;;;;;;;;6271192;28;20046;-80
2023/08/30 11:44:29;;;;;;;1.88;0.70;;;;;;;;;;6270539;28;20229;-80
2023/08/30 11:47:32;;;;;;;0.95;0.68;;;;;;;;;;6281199;28;20056;-80
2023/08/30 11:50:34;;;;;;;0.98;0.70;;;;;;;;;;6271314;28;20129;-80
2023/08/30 11:53:36;;;;;;;;;;;;;;;;;;6274521;28;20053;-80
2023/08/30 11:56:40;;;;;;;1.05;0.63;;;;;;;;;;6268524;28;19917;-80
2023/08/30 11:59:42;;;;;;;2.72;0.73;;;;;;;;;;6271910;28;20061;-81
2023/08/30 12:06:05;;;;;;;1.23;0.70;;;;;;;;;;6269231;28;20045;-80
2023/08/30 12:09:09;;;;;;;1.00;0.70;;;;;;;;;;6275173;28;20245;-80
2023/08/30 12:12:13;;;;;;;2.10;0.70;;;;;;;;;;6276538;28;20061;-80
2023/08/30 12:19:10;;;;;;;1.25;0.68;;;;;;;;;;6275331;28;20233;-80
2023/08/30 12:22:41;;;;;;;3.33;1.05;;;;;;;;;;6261323;28;20126;-81
2023/08/30 12:29:47;;;;;;;0.63;0.50;;;;;;;;;;6137202;28;20055;-80
2023/08/30 12:32:49;;;;;;;3.65;0.52;;;;;;;;;;6195070;28;20054;-80
2023/08/30 12:35:51;;;;;;;;;;;;;;;;;;6226269;28;20243;-80
2023/08/30 12:47:36;;;;;;;1.60;0.60;;;;;;;;;;6185038;28;20200;-80
2023/08/30 12:51:08;;;;;;;0.40;0.40;;;;;;;;;;6202655;28;20054;-80
2023/08/30 12:54:13;;;;;;;2.35;0.52;;;;;;;;;;6200113;28;20058;-81
2023/08/30 13:00:40;;;;;;;0.55;0.35;;;;;;;;;;6176132;28;20113;-80
2023/08/30 13:03:42;;;;;;;0.50;0.38;;;;;;;;;;6220665;28;20054;-81
2023/08/30 13:06:48;;;;;;;0.50;0.30;;;;;;;;;;6261404;28;20091;-80
2023/08/30 13:09:50;;;;;;;1.92;0.40;;;;;;;;;;6275536;28;20132;-81
2023/08/30 13:12:52;;;;;;;3.65;1.20;;;;;;;;;;6273292;28;20041;-81
2023/08/30 13:15:57;;;;;;;0.65;0.50;;;;;;;;;;6275070;28;20067;-81
2023/08/30 13:19:08;;;;;;;1.02;0.50;;;;;;;;;;6265849;28;20053;-81
2023/08/30 13:22:27;;;;;;;1.15;0.50;;;;;;;;;;6278336;28;20052;-81
2023/08/30 13:26:10;;;;;;;0.82;0.55;;;;;;;;;;6268766;28;20327;-81
2023/08/30 13:32:45;;;;;;;1.48;0.40;;;;;;;;;;6236894;28;20059;-81
2023/08/30 13:35:52;;;;;;;2.22;0.70;;;;;;;;;;6276969;28;20244;-81
2023/08/30 13:39:50;;;;;;;1.20;0.45;;;;;;;;;;6273607;28;20228;-81
2023/08/30 13:43:55;;;;;;;1.23;0.60;;;;;;;;;;6256302;28;20057;-81
2023/08/30 13:47:22;;;;;;;1.65;0.50;;;;;;;;;;6268399;28;20279;-81
2023/08/30 13:50:26;;;;;;;1.00;0.50;;;;;;;;;;6272192;28;20314;-81
2023/08/30 14:05:53;;;;;;;4.05;0.75;;;;;;;;;;6215036;28;20062;-81
2023/08/30 14:09:27;;;;;;;0.50;0.32;;;;;;;;;;6227535;28;20341;-81
2023/08/30 14:12:33;;;;;;;3.75;0.32;;;;;;;;;;6224333;28;20065;-81
2023/08/30 14:15:35;;;;;;;1.48;0.50;;;;;;;;;;6221527;28;20061;-81
2023/08/30 14:18:38;;;;;;;0.63;0.35;;;;;;;;;;6224131;28;20132;-80
2023/08/30 14:22:27;;;;;;;1.58;0.40;;;;;;;;;;6213331;28;20341;-81
2023/08/30 14:26:12;;;;;;;1.55;0.40;;;;;;;;;;6221967;28;20054;-80
2023/08/30 14:29:17;;;;;;;1.38;0.30;;;;;;;;;;6238500;28;20080;-80
2023/08/30 14:32:32;;;;;;;1.40;0.40;;;;;;;;;;6240674;28;20061;-80
2023/08/30 14:40:23;;;;;;;;;;;;;;;;;;;;;
2023/08/30 14:55:15;;;;;;;0.55;0.30;;;;;;;;;;5987965;29;20054;-81
2023/08/30 14:58:18;;;;;;;0.55;0.40;;;;;;;;;;6030588;29;20345;-81
2023/08/30 15:01:20;;;;;;;;;;;;;;;;;;6067165;29;20226;-81
2023/08/30 15:04:35;;;;;;;1.88;0.40;;;;;;;;;;6066147;29;19927;-81
2023/08/30 15:07:44;;;;;;;1.98;0.43;;;;;;;;;;6069643;29;20655;-81
2023/08/30 15:11:08;;;;;;;0.35;0.20;;;;;;;;;;6070489;29;20682;-81
2023/08/30 15:14:42;;;;;;;1.33;0.50;;;;;;;;;;6093919;29;20138;-81
2023/08/30 15:17:44;;;;;;;0.80;0.30;;;;;;;;;;6157822;28;20050;-81
2023/08/30 15:20:55;;;;;;;;;;;;;;;;;;6226606;28;20095;-80
2023/08/30 15:24:01;;;;;;;0.85;0.43;;;;;;;;;;6277334;28;20041;-81
2023/08/30 15:27:10;;;;;;;0.73;0.30;;;;;;;;;;6236236;28;20061;-81
2023/08/30 15:30:18;;;;;;;1.02;0.50;;;;;;;;;;6244751;28;20053;-81
2023/08/30 15:33:32;;;;;;;0.30;0.30;;;;;;;;;;6243376;28;20235;-81
2023/08/30 15:36:34;;;;;;;0.40;0.40;;;;;;;;;;6237244;28;20046;-80
2023/08/30 15:39:37;;;;;;;;;;;;;;;;;;6249627;28;20294;-81
2023/08/30 15:43:05;;;;;;;0.63;0.35;;;;;;;;;;6246313;28;19925;-81
2023/08/30 15:46:22;;;;;;;1.63;0.57;;;;;;;;;;6250650;28;20411;-81
2023/08/30 15:52:43;;;;;;;0.70;0.28;;;;;;;;;;6250747;28;20053;-81
2023/08/30 15:55:48;;;;;;;0.65;0.50;;;;;;;;;;6256575;28;20309;-81
2023/08/30 15:58:56;;;;;;;0.93;0.40;;;;;;;;;;6245962;28;20063;-81
2023/08/30 16:02:08;;;;;;;3.58;0.40;;;;;;;;;;6260052;28;20053;-81
2023/08/30 16:05:30;;;;;;;0.75;0.50;;;;;;;;;;6250258;28;20257;-81
2023/08/30 16:08:34;;;;;;;0.40;0.30;;;;;;;;;;6250484;28;20143;-80
2023/08/30 16:11:41;;;;;;;0.77;0.40;;;;;;;;;;6243414;28;20050;-81
2023/08/30 16:14:48;;;;;;;1.58;0.38;;;;;;;;;;6248935;28;20153;-81
2023/08/30 16:17:53;;;;;;;1.13;0.30;;;;;;;;;;6250694;28;20216;-81
2023/08/30 16:21:04;;;;;;;0.45;0.30;;;;;;;;;;6249389;28;20214;-81
2023/08/30 16:24:12;;;;;;;0.32;0.30;;;;;;;;;;6247805;28;20059;-81
2023/08/30 16:27:39;;;;;;;0.82;0.50;;;;;;;;;;6258056;28;20349;-81
2023/08/30 16:31:01;;;;;;;1.20;0.40;;;;;;;;;;6271468;28;20048;-81
2023/08/30 16:34:24;;;;;;;0.93;0.50;;;;;;;;;;6262118;28;20045;-81
2023/08/30 16:41:24;;;;;;;;;;;;;;;;;;;;;
2023/08/30 16:44:50;;;;;;;1.75;0.77;;;;;;;;;;6260618;28;20099;-81
2023/08/30 16:48:06;;;;;;;1.10;0.50;;;;;;;;;;6268903;28;20218;-80
2023/08/30 16:55:57;;;;;;;3.05;1.08;;;;;;;;;;6226625;28;20602;-81
2023/08/30 16:59:38;;;;;;;1.63;0.65;;;;;;;;;;6221774;28;20058;-81
2023/08/30 17:02:42;;;;;;;0.73;0.50;;;;;;;;;;6236927;28;20065;-81
2023/08/30 17:05:47;;;;;;;2.03;1.40;;;;;;;;;;6239685;28;20057;-81
2023/08/30 17:09:16;;;;;;;1.17;0.55;;;;;;;;;;6237142;28;20154;-81
2023/08/30 17:12:19;;;;;;;1.40;0.65;;;;;;;;;;6165849;28;20359;-81
2023/08/30 17:15:31;;;;;;;;;;;;;;;;;;;;;
2023/08/30 17:18:44;;;;;;;0.75;0.40;;;;;;;;;;6162444;28;20050;-81
2023/08/30 17:22:43;;;;;;;1.70;0.50;;;;;;;;;;6165054;28;20350;-81
2023/08/30 17:26:09;;;;;;;3.90;0.68;;;;;;;;;;6145117;28;20065;-81
2023/08/30 17:29:19;;;;;;;1.35;0.50;;;;;;;;;;6178813;28;20045;-81
2023/08/30 17:32:23;;;;;;;4.47;0.70;;;;;;;;;;6202349;28;20055;-81
2023/08/30 17:35:29;;;;;;;1.27;0.70;;;;;;;;;;6203065;28;20064;-81
2023/08/30 17:38:31;;;;;;;2.55;0.80;;;;;;;;;;6218699;28;20081;-81
2023/08/30 17:41:39;;;;;;;1.03;0.60;;;;;;;;;;6219704;28;20061;-79
2023/08/30 17:45:01;;;;;;;1.23;0.60;;;;;;;;;;6214591;28;20069;-83
2023/08/30 17:48:05;;;;;;;3.30;1.23;;;;;;;;;;6240510;28;20053;-82
2023/08/30 17:51:11;;;;;;;2.70;0.90;;;;;;;;;;6243528;28;20116;-82
2023/08/30 17:54:32;;;;;;;2.22;0.50;;;;;;;;;;6236349;28;20062;-82
2023/08/30 18:00:52;;;;;;;1.02;0.55;;;;;;;;;;6268278;28;20075;-78
2023/08/30 18:03:54;;;;;;;1.33;0.77;;;;;;;;;;6274926;28;20298;-79
2023/08/30 18:06:59;;;;;;;4.05;0.70;;;;;;;;;;6274883;28;20051;-79
2023/08/30 18:10:02;;;;;;;1.92;0.70;;;;;;;;;;6270774;28;20046;-81
2023/08/30 18:13:04;;;;;;;2.13;0.70;;;;;;;;;;6272002;28;20052;-81
2023/08/30 18:16:06;;;;;;;3.95;0.80;;;;;;;;;;6270063;28;20146;-80
2023/08/30 18:19:08;;;;;;;1.23;0.40;;;;;;;;;;6273171;28;20657;-81
2023/08/30 18:22:12;;;;;;;0.93;0.50;;;;;;;;;;6272786;28;20066;-83
2023/08/30 18:25:13;;;;;;;;;;;;;;;;;;6269941;28;20382;-83
2023/08/30 18:28:15;;;;;;;2.20;0.50;;;;;;;;;;6270439;28;19948;-83
2023/08/30 18:31:18;;;;;;;2.70;0.40;;;;;;;;;;6268824;28;20053;-82
2023/08/30 18:34:21;;;;;;;1.27;0.50;;;;;;;;;;6268550;28;20273;-79
2023/08/30 18:37:24;;;;;;;3.88;0.55;;;;;;;;;;6263999;28;20312;-79
2023/08/30 18:40:26;;;;;;;1.38;0.60;;;;;;;;;;6268845;28;20094;-79
2023/08/30 18:43:34;;;;;;;1.63;0.65;;;;;;;;;;6268018;28;20049;-78
2023/08/30 18:47:00;;;;;;;2.00;0.80;;;;;;;;;;6267602;28;20341;-83
2023/08/30 18:50:03;;;;;;;3.30;0.77;;;;;;;;;;6272707;28;20077;-81
2023/08/30 18:53:07;;;;;;;0.90;0.73;;;;;;;;;;6267409;28;20049;-81
2023/08/30 18:56:10;;;;;;;3.20;0.90;;;;;;;;;;6267724;28;20409;-81
2023/08/30 18:59:11;;;;;;;2.13;0.90;;;;;;;;;;6269433;28;20285;-81
2023/08/30 19:02:14;;;;;;;2.30;1.02;;;;;;;;;;6265984;28;20053;-80
2023/08/30 19:05:16;;;;;;;1.80;1.00;;;;;;;;;;6273429;28;20334;-77
2023/08/30 19:08:19;;;;;;;2.58;1.20;;;;;;;;;;6268053;28;20056;-77
2023/08/30 19:11:21;;;;;;;1.17;0.73;;;;;;;;;;6268791;28;20041;-78
2023/08/30 19:14:25;;;;;;;3.72;1.10;;;;;;;;;;6267230;28;20062;-78
2023/08/30 19:17:29;;;;;;;1.75;1.00;;;;;;;;;;6265103;28;20077;-78
2023/08/30 19:20:34;;;;;;;2.53;0.93;;;;;;;;;;6268684;28;20053;-80
2023/08/30 19:23:39;;;;;;;2.28;0.90;;;;;;;;;;6267825;28;20044;-79
2023/08/30 19:26:56;;;;;;;1.90;1.10;;;;;;;;;;6271671;28;20056;-79
2023/08/30 19:30:02;;;;;;;3.20;1.17;;;;;;;;;;6267526;28;20057;-78
2023/08/30 19:33:04;;;;;;;2.50;1.20;;;;;;;;;;6268097;28;20120;-79
2023/08/30 19:36:25;;;;;;;2.75;1.50;;;;;;;;;;6268415;28;20120;-78
2023/08/30 19:39:35;;;;;;;2.10;1.35;;;;;;;;;;6263326;28;20053;-78
2023/08/30 19:42:56;;;;;;;3.13;1.25;;;;;;;;;;6267809;28;20078;-78
2023/08/30 19:46:01;;;;;;;3.60;1.20;;;;;;;;;;6267431;28;20256;-80
2023/08/30 19:49:03;;;;;;;2.33;1.40;;;;;;;;;;6268382;28;20052;-79
2023/08/30 19:52:05;;;;;;;3.92;1.23;;;;;;;;;;6265339;28;20051;-79